createdAt,value
2022-11-16T00:02:21.834Z,12.91
2022-11-16T00:04:48.354Z,12.16
2022-11-16T00:07:14.871Z,11.96
2022-11-16T00:09:41.370Z,12.03
2022-11-16T00:12:07.863Z,11.93
2022-11-16T00:14:35.870Z,11.86
2022-11-16T00:17:03.663Z,12.05
2022-11-16T00:19:30.407Z,11.88
2022-11-16T00:21:56.912Z,12.42
2022-11-16T00:24:23.934Z,12.98
2022-11-16T00:26:53.768Z,13.35
2022-11-16T00:29:24.915Z,13.35
2022-11-16T00:31:52.667Z,13.23
2022-11-16T00:34:19.930Z,13.39
2022-11-16T00:36:47.014Z,13.81
2022-11-16T00:39:15.005Z,13.83
2022-11-16T00:41:42.360Z,14.06
2022-11-16T00:44:09.689Z,14.26
2022-11-16T00:46:36.153Z,14.31
2022-11-16T00:49:03.983Z,14.30
2022-11-16T00:51:30.431Z,14.58
2022-11-16T00:53:56.972Z,14.67
2022-11-16T00:56:23.744Z,14.62
2022-11-16T00:58:50.305Z,14.82
2022-11-16T01:01:17.182Z,14.88
2022-11-16T01:03:43.722Z,15.00
2022-11-16T01:06:15.053Z,15.06
2022-11-16T01:08:43.009Z,15.10
2022-11-16T01:11:13.830Z,14.98
2022-11-16T01:13:40.288Z,14.96
2022-11-16T01:16:06.859Z,14.64
2022-11-16T01:18:33.543Z,14.76
2022-11-16T01:21:00.224Z,14.37
2022-11-16T01:23:26.669Z,13.69
2022-11-16T01:25:57.647Z,13.44
2022-11-16T01:28:24.082Z,13.91
2022-11-16T01:30:50.546Z,14.08
2022-11-16T01:33:17.049Z,14.25
2022-11-16T01:35:43.919Z,14.44
2022-11-16T01:38:10.379Z,14.58
2022-11-16T01:40:38.004Z,14.57
2022-11-16T01:43:16.812Z,14.67
2022-11-16T01:45:44.586Z,14.69
2022-11-16T01:48:16.058Z,14.70
2022-11-16T01:50:44.625Z,14.83
2022-11-16T01:53:13.355Z,14.92
2022-11-16T01:55:43.167Z,14.83
2022-11-16T01:58:17.463Z,14.90
2022-11-16T02:00:43.985Z,14.77
2022-11-16T02:03:10.571Z,14.91
2022-11-16T02:06:00.826Z,14.83
2022-11-16T02:08:39.485Z,14.76
2022-11-16T02:11:40.318Z,14.64
2022-11-16T02:14:29.540Z,14.62
2022-11-16T02:17:12.071Z,14.71
2022-11-16T02:19:41.270Z,14.81
2022-11-16T02:22:49.013Z,14.75
2022-11-16T02:25:49.962Z,14.78
2022-11-16T02:28:32.953Z,14.58
2022-11-16T02:31:05.399Z,14.39
2022-11-16T02:33:38.914Z,14.71
2022-11-16T02:36:11.923Z,14.65
2022-11-16T02:38:45.036Z,14.62
2022-11-16T02:41:19.717Z,14.82
2022-11-16T02:43:55.276Z,14.98
2022-11-16T02:46:30.803Z,15.04
2022-11-16T02:49:02.918Z,15.14
2022-11-16T02:51:31.080Z,15.20
2022-11-16T02:54:23.860Z,15.18
2022-11-16T02:56:50.243Z,15.25
2022-11-16T02:59:17.867Z,15.01
2022-11-16T03:01:59.531Z,15.07
2022-11-16T03:04:37.584Z,15.18
2022-11-16T03:07:08.813Z,15.10
2022-11-16T03:09:38.677Z,14.90
2022-11-16T03:12:11.371Z,14.84
2022-11-16T03:14:49.763Z,14.89
2022-11-16T03:17:25.635Z,14.91
2022-11-16T03:20:01.413Z,14.82
2022-11-16T03:22:39.541Z,14.94
2022-11-16T03:25:08.641Z,15.08
2022-11-16T03:27:54.729Z,15.18
2022-11-16T03:30:24.717Z,15.23
2022-11-16T03:32:54.842Z,15.26
2022-11-16T03:35:49.938Z,15.29
2022-11-16T03:38:19.937Z,15.28
2022-11-16T03:40:47.968Z,15.29
2022-11-16T03:43:18.025Z,15.32
2022-11-16T03:45:46.576Z,15.30
2022-11-16T03:48:13.324Z,15.33
2022-11-16T03:50:42.537Z,15.20
2022-11-16T03:53:09.769Z,15.17
2022-11-16T03:55:36.227Z,15.21
2022-11-16T03:58:02.722Z,15.06
2022-11-16T04:00:29.213Z,15.09
2022-11-16T04:02:55.942Z,15.21
2022-11-16T04:05:23.116Z,15.12
2022-11-16T04:07:49.572Z,14.84
2022-11-16T04:10:16.040Z,15.01
2022-11-16T04:13:03.811Z,14.99
2022-11-16T04:15:30.281Z,15.10
2022-11-16T04:17:56.722Z,15.08
2022-11-16T04:20:23.182Z,15.14
2022-11-16T04:22:57.810Z,15.14
2022-11-16T04:25:30.564Z,15.12
2022-11-16T04:27:58.167Z,15.04
2022-11-16T04:30:24.800Z,15.06
2022-11-16T04:32:51.360Z,15.13
2022-11-16T04:35:17.866Z,14.95
2022-11-16T04:37:44.305Z,14.59
2022-11-16T04:40:11.321Z,14.29
2022-11-16T04:42:37.771Z,14.55
2022-11-16T04:45:04.845Z,14.31
2022-11-16T04:47:31.415Z,14.53
2022-11-16T04:49:57.885Z,14.59
2022-11-16T04:52:24.610Z,14.89
2022-11-16T04:54:51.647Z,14.99
2022-11-16T04:57:18.125Z,15.15
2022-11-16T04:59:44.572Z,15.14
2022-11-16T05:02:11.058Z,15.16
2022-11-16T05:04:40.017Z,15.01
2022-11-16T05:07:07.791Z,14.93
2022-11-16T05:09:34.248Z,14.57
2022-11-16T05:12:00.681Z,15.03
2022-11-16T05:14:27.173Z,14.84
2022-11-16T05:16:53.629Z,14.91
2022-11-16T05:19:20.088Z,14.83
2022-11-16T05:21:46.906Z,14.66
2022-11-16T05:24:13.418Z,14.75
2022-11-16T05:26:39.884Z,14.80
2022-11-16T05:29:06.333Z,14.79
2022-11-16T05:31:37.583Z,14.45
2022-11-16T05:34:06.766Z,14.01
2022-11-16T05:36:33.201Z,14.50
2022-11-16T05:38:59.688Z,14.69
2022-11-16T05:41:26.219Z,14.90
2022-11-16T05:43:54.195Z,14.87
2022-11-16T05:46:20.741Z,14.97
2022-11-16T05:48:47.409Z,15.12
2022-11-16T05:51:13.965Z,14.86
2022-11-16T05:53:40.803Z,14.77
2022-11-16T05:56:07.805Z,14.85
2022-11-16T05:58:34.593Z,15.08
2022-11-16T06:01:01.369Z,15.10
2022-11-16T06:03:29.888Z,15.00
2022-11-16T06:05:57.119Z,15.08
2022-11-16T06:08:23.848Z,15.13
2022-11-16T06:10:50.427Z,14.97
2022-11-16T06:13:16.879Z,14.93
2022-11-16T06:18:24.185Z,15.00
2022-11-16T06:20:50.756Z,14.90
2022-11-16T06:23:17.453Z,14.82
2022-11-16T06:25:43.950Z,14.81
2022-11-16T06:28:11.188Z,14.69
2022-11-16T06:30:39.138Z,14.69
2022-11-16T06:33:06.131Z,14.80
2022-11-16T06:35:33.136Z,14.93
2022-11-16T06:37:59.602Z,15.04
2022-11-16T06:40:26.101Z,14.70
2022-11-16T06:42:52.561Z,15.01
2022-11-16T06:45:19.092Z,14.39
2022-11-16T06:47:45.537Z,14.49
2022-11-16T06:50:12.014Z,14.57
2022-11-16T06:52:38.465Z,14.65
2022-11-16T06:55:05.293Z,14.47
2022-11-16T06:57:32.846Z,14.52
2022-11-16T06:59:59.308Z,14.44
2022-11-16T07:02:25.846Z,14.66
2022-11-16T07:04:52.295Z,14.85
2022-11-16T07:07:18.792Z,14.93
2022-11-16T07:09:45.287Z,14.92
2022-11-16T07:12:11.748Z,15.25
2022-11-16T07:14:38.214Z,15.24
2022-11-16T07:17:09.249Z,15.07
2022-11-16T07:19:36.246Z,15.34
2022-11-16T07:22:02.718Z,15.45
2022-11-16T07:24:29.169Z,15.45
2022-11-16T07:26:55.644Z,15.43
2022-11-16T07:29:22.096Z,15.32
2022-11-16T07:31:48.528Z,15.17
2022-11-16T07:34:14.969Z,15.34
2022-11-16T07:36:41.502Z,15.53
2022-11-16T07:39:08.134Z,15.53
2022-11-16T07:41:35.018Z,15.48
2022-11-16T07:44:01.505Z,15.43
2022-11-16T07:46:45.817Z,15.51
2022-11-16T07:49:15.215Z,15.35
2022-11-16T07:51:41.959Z,15.01
2022-11-16T07:54:11.900Z,15.23
2022-11-16T07:56:38.400Z,15.22
2022-11-16T07:59:05.000Z,15.47
2022-11-16T08:01:31.467Z,15.38
2022-11-16T08:03:57.952Z,15.24
2022-11-16T08:06:27.532Z,14.90
2022-11-16T08:08:58.279Z,15.50
2022-11-16T08:11:25.949Z,15.39
2022-11-16T08:13:52.428Z,14.92
2022-11-16T08:16:22.006Z,14.77
2022-11-16T08:18:48.724Z,14.80
2022-11-16T08:21:17.669Z,14.73
2022-11-16T08:23:44.642Z,15.06
2022-11-16T08:26:14.720Z,14.89
2022-11-16T08:28:42.410Z,14.94
2022-11-16T08:31:14.339Z,15.20
2022-11-16T08:33:41.275Z,14.37
2022-11-16T08:36:13.994Z,14.49
2022-11-16T08:38:41.068Z,14.65
2022-11-16T08:41:07.702Z,14.87
2022-11-16T08:43:34.751Z,14.79
2022-11-16T08:46:01.299Z,14.85
2022-11-16T08:48:27.868Z,14.78
2022-11-16T08:51:16.387Z,14.78
2022-11-16T08:53:40.749Z,14.96
2022-11-16T08:56:11.800Z,15.17
2022-11-16T08:58:39.196Z,15.36
2022-11-16T09:01:11.072Z,15.44
2022-11-16T09:03:38.436Z,15.86
2022-11-16T09:06:06.920Z,15.89
2022-11-16T09:08:33.902Z,16.13
2022-11-16T09:11:04.525Z,16.18
2022-11-16T09:13:31.081Z,16.16
2022-11-16T09:15:59.124Z,16.19
2022-11-16T09:18:27.213Z,16.10
2022-11-16T09:20:54.619Z,16.31
2022-11-16T09:23:25.298Z,16.08
2022-11-16T09:25:52.836Z,15.96
2022-11-16T09:28:22.121Z,16.01
2022-11-16T09:30:50.945Z,15.78
2022-11-16T09:33:18.135Z,15.88
2022-11-16T09:35:44.801Z,16.20
2022-11-16T09:38:13.640Z,15.81
2022-11-16T09:40:47.203Z,15.97
2022-11-16T09:43:27.498Z,15.88
2022-11-16T09:46:16.112Z,16.21
2022-11-16T09:48:43.293Z,16.45
2022-11-16T09:51:15.104Z,16.59
2022-11-16T09:53:54.000Z,16.72
2022-11-16T09:56:23.532Z,16.76
2022-11-16T09:59:00.889Z,16.69
2022-11-16T10:01:55.188Z,16.93
2022-11-16T10:04:43.380Z,16.92
2022-11-16T10:07:19.817Z,17.06
2022-11-16T10:09:47.347Z,16.99
2022-11-16T10:12:19.815Z,16.96
2022-11-16T10:15:01.637Z,17.05
2022-11-16T10:17:50.764Z,17.08
2022-11-16T10:20:49.531Z,16.97
2022-11-16T10:23:25.544Z,16.70
2022-11-16T10:26:01.369Z,16.82
2022-11-16T10:28:48.181Z,16.10
2022-11-16T10:31:20.691Z,16.29
2022-11-16T10:33:53.742Z,16.27
2022-11-16T10:36:24.937Z,16.15
2022-11-16T10:38:51.619Z,16.37
2022-11-16T10:41:29.638Z,16.53
2022-11-16T10:43:58.980Z,16.26
2022-11-16T10:46:35.455Z,16.55
2022-11-16T10:49:12.325Z,16.90
2022-11-16T10:51:38.903Z,16.86
2022-11-16T10:54:13.120Z,16.31
2022-11-16T10:56:44.020Z,16.59
2022-11-16T10:59:12.968Z,16.57
2022-11-16T11:01:47.171Z,16.78
2022-11-16T11:04:15.852Z,16.68
2022-11-16T11:06:43.381Z,16.70
2022-11-16T11:09:30.795Z,16.30
2022-11-16T11:12:21.603Z,16.63
2022-11-16T11:14:59.985Z,16.46
2022-11-16T11:17:27.470Z,16.67
2022-11-16T11:19:58.971Z,16.95
2022-11-16T11:22:26.444Z,16.95
2022-11-16T11:24:53.881Z,16.83
2022-11-16T11:27:32.750Z,16.25
2022-11-16T11:30:00.198Z,16.03
2022-11-16T11:32:39.971Z,16.12
2022-11-16T11:35:21.663Z,16.10
2022-11-16T11:37:54.481Z,16.31
2022-11-16T11:40:25.358Z,16.26
2022-11-16T11:42:58.554Z,16.42
2022-11-16T11:45:34.205Z,16.31
2022-11-16T11:48:16.246Z,16.52
2022-11-16T11:50:54.148Z,16.65
2022-11-16T11:53:39.350Z,16.71
2022-11-16T11:56:06.310Z,16.52
2022-11-16T11:58:38.461Z,16.60
2022-11-16T12:01:45.129Z,16.57
2022-11-16T12:04:48.980Z,16.54
2022-11-16T12:07:36.918Z,16.67
2022-11-16T12:10:30.664Z,16.89
2022-11-16T12:13:19.705Z,16.25
2022-11-16T12:15:57.543Z,16.46
2022-11-16T12:18:35.879Z,16.70
2022-11-16T12:21:12.658Z,16.54
2022-11-16T12:24:05.834Z,16.55
2022-11-16T12:26:52.482Z,16.81
2022-11-16T12:29:30.528Z,16.80
2022-11-16T12:32:36.754Z,16.74
2022-11-16T12:35:14.922Z,17.15
2022-11-16T12:37:54.875Z,16.86
2022-11-16T12:40:58.455Z,17.13
2022-11-16T12:43:51.204Z,17.10
2022-11-16T12:46:26.405Z,17.28
2022-11-16T12:49:12.862Z,17.43
2022-11-16T12:52:02.543Z,17.31
2022-11-16T12:55:04.318Z,17.51
2022-11-16T12:57:36.869Z,17.74
2022-11-16T13:00:14.361Z,18.20
2022-11-16T13:03:05.072Z,18.30
2022-11-16T13:06:04.487Z,18.22
2022-11-16T13:08:40.703Z,18.51
2022-11-16T13:11:23.652Z,18.14
2022-11-16T13:13:57.975Z,18.09
2022-11-16T13:16:25.044Z,18.34
2022-11-16T13:18:53.699Z,18.45
2022-11-16T13:21:51.129Z,18.62
2022-11-16T13:24:46.629Z,18.63
2022-11-16T13:27:19.256Z,19.05
2022-11-16T13:30:25.952Z,19.11
2022-11-16T13:33:12.435Z,19.01
2022-11-16T13:35:39.338Z,19.21
2022-11-16T13:38:12.414Z,19.31
2022-11-16T13:40:39.762Z,19.58
2022-11-16T13:43:11.911Z,19.70
2022-11-16T13:45:44.355Z,20.31
2022-11-16T13:48:32.798Z,20.46
2022-11-16T13:51:22.294Z,20.36
2022-11-16T13:54:43.218Z,20.74
2022-11-16T13:56:49.751Z,20.68
2022-11-16T13:59:24.843Z,20.42
2022-11-16T14:02:00.329Z,20.12
2022-11-16T14:04:39.030Z,19.64
2022-11-16T14:07:41.534Z,19.29
2022-11-16T14:10:08.925Z,19.77
2022-11-16T14:12:38.118Z,20.07
2022-11-16T14:15:15.759Z,20.44
2022-11-16T14:17:56.359Z,20.74
2022-11-16T14:20:32.451Z,21.15
2022-11-16T14:23:20.505Z,21.36
2022-11-16T14:25:53.900Z,21.40
2022-11-16T14:28:32.206Z,21.88
2022-11-16T14:31:21.061Z,21.77
2022-11-16T14:33:54.983Z,21.55
2022-11-16T14:36:38.785Z,21.47
2022-11-16T14:39:34.582Z,21.02
2022-11-16T14:42:18.300Z,20.73
2022-11-16T14:44:45.183Z,20.41
2022-11-16T14:47:26.796Z,20.05
2022-11-16T14:49:54.854Z,20.03
2022-11-16T14:52:38.190Z,19.86
2022-11-16T14:55:10.270Z,19.79
2022-11-16T14:57:36.707Z,19.66
2022-11-16T15:00:19.034Z,19.20
2022-11-16T15:02:51.870Z,19.24
2022-11-16T15:05:22.665Z,19.12
2022-11-16T15:07:52.976Z,18.86
2022-11-16T15:10:25.426Z,18.67
2022-11-16T15:12:54.790Z,18.55
2022-11-16T15:15:31.509Z,18.06
2022-11-16T15:18:07.978Z,17.90
2022-11-16T15:20:37.783Z,18.03
2022-11-16T15:23:12.986Z,18.61
2022-11-16T15:25:52.903Z,18.47
2022-11-16T15:28:30.422Z,18.74
2022-11-16T15:31:00.375Z,19.02
2022-11-16T15:33:29.582Z,19.32
2022-11-16T15:35:58.119Z,19.53
2022-11-16T15:38:32.743Z,19.69
2022-11-16T15:41:02.739Z,19.64
2022-11-16T15:43:45.164Z,19.45
2022-11-16T15:46:24.745Z,19.51
2022-11-16T15:48:52.849Z,19.31
2022-11-16T15:51:22.608Z,18.97
2022-11-16T15:53:51.694Z,18.64
2022-11-16T15:56:28.713Z,18.72
2022-11-16T15:58:58.722Z,18.51
2022-11-16T16:01:25.852Z,18.32
2022-11-16T16:04:07.112Z,18.23
2022-11-16T16:06:47.236Z,18.10
2022-11-16T16:09:42.864Z,17.98
2022-11-16T16:12:18.790Z,17.74
2022-11-16T16:14:46.945Z,17.68
2022-11-16T16:17:26.815Z,17.58
2022-11-16T16:19:58.912Z,17.47
2022-11-16T16:22:25.345Z,17.42
2022-11-16T16:24:52.351Z,17.14
2022-11-16T16:27:24.858Z,17.18
2022-11-16T16:29:55.954Z,17.11
2022-11-16T16:32:28.465Z,17.00
2022-11-16T16:34:57.796Z,16.90
2022-11-16T16:37:27.236Z,16.80
2022-11-16T16:39:53.681Z,16.39
2022-11-16T16:42:20.169Z,16.46
2022-11-16T16:44:47.614Z,16.43
2022-11-16T16:47:16.069Z,16.40
2022-11-16T16:49:42.643Z,16.37
2022-11-16T16:52:12.429Z,16.35
2022-11-16T16:54:40.110Z,16.24
2022-11-16T16:57:11.587Z,16.06
2022-11-16T16:59:38.076Z,16.04
2022-11-16T17:02:04.505Z,15.90
2022-11-16T17:04:32.548Z,15.86
2022-11-16T17:06:59.038Z,15.83
2022-11-16T17:09:25.510Z,15.81
2022-11-16T17:11:51.966Z,15.71
2022-11-16T17:14:18.459Z,15.58
2022-11-16T17:16:44.939Z,15.59
2022-11-16T17:19:11.443Z,15.62
2022-11-16T17:21:37.894Z,15.56
2022-11-16T17:24:04.887Z,15.57
2022-11-16T17:26:31.361Z,15.52
2022-11-16T17:28:58.234Z,15.52
2022-11-16T17:31:26.158Z,15.39
2022-11-16T17:33:52.614Z,15.38
2022-11-16T17:36:19.732Z,15.35
2022-11-16T17:38:46.613Z,15.20
2022-11-16T17:41:16.201Z,15.24
2022-11-16T17:43:44.980Z,15.26
2022-11-16T17:46:14.724Z,15.19
2022-11-16T17:48:43.065Z,15.16
2022-11-16T17:51:11.683Z,15.19
2022-11-16T17:53:38.915Z,15.23
2022-11-16T17:56:07.129Z,15.20
2022-11-16T17:58:34.330Z,15.25
2022-11-16T18:01:01.019Z,15.21
2022-11-16T18:03:27.594Z,15.10
2022-11-16T18:06:13.520Z,15.08
2022-11-16T18:08:41.569Z,15.06
2022-11-16T18:11:16.986Z,15.03
2022-11-16T18:13:43.759Z,15.01
2022-11-16T18:16:19.003Z,14.99
2022-11-16T18:18:47.165Z,15.02
2022-11-16T18:21:20.449Z,15.05
2022-11-16T18:23:47.573Z,15.09
2022-11-16T18:26:19.983Z,15.12
2022-11-16T18:28:51.243Z,15.09
2022-11-16T18:31:20.934Z,15.09
2022-11-16T18:33:47.950Z,15.10
2022-11-16T18:36:15.066Z,15.07
2022-11-16T18:38:41.561Z,15.15
2022-11-16T18:41:10.951Z,15.09
2022-11-16T18:44:01.018Z,15.08
2022-11-16T18:46:30.289Z,14.92
2022-11-16T18:48:57.010Z,14.96
2022-11-16T18:51:25.622Z,14.95
2022-11-16T18:53:52.164Z,14.94
2022-11-16T18:56:19.476Z,14.88
2022-11-16T18:58:50.968Z,14.88
2022-11-16T19:01:23.842Z,14.68
2022-11-16T19:03:52.122Z,14.77
2022-11-16T19:06:19.893Z,14.68
2022-11-16T19:08:55.017Z,14.68
2022-11-16T19:11:23.199Z,14.61
2022-11-16T19:13:54.810Z,14.53
2022-11-16T19:16:22.068Z,14.54
2022-11-16T19:18:48.533Z,14.19
2022-11-16T19:21:16.761Z,14.08
2022-11-16T19:23:45.573Z,14.16
2022-11-16T19:26:14.200Z,14.12
2022-11-16T19:28:42.808Z,14.17
2022-11-16T19:31:13.678Z,14.23
2022-11-16T19:33:41.059Z,14.23
2022-11-16T19:36:18.158Z,14.25
2022-11-16T19:38:56.469Z,14.28
2022-11-16T19:41:24.597Z,14.30
2022-11-16T19:43:53.183Z,14.32
2022-11-16T19:46:19.797Z,14.30
2022-11-16T19:48:46.286Z,14.14
2022-11-16T19:51:15.923Z,14.22
2022-11-16T19:53:42.447Z,14.24
2022-11-16T19:56:11.999Z,14.26
2022-11-16T19:58:38.682Z,14.30
2022-11-16T20:01:08.187Z,14.32
2022-11-16T20:03:35.079Z,14.32
2022-11-16T20:06:29.657Z,14.32
2022-11-16T20:08:58.854Z,14.33
2022-11-16T20:11:27.763Z,14.20
2022-11-16T20:13:56.516Z,14.19
2022-11-16T20:16:31.676Z,13.85
2022-11-16T20:19:02.044Z,14.09
2022-11-16T20:21:31.008Z,13.86
2022-11-16T20:24:01.671Z,14.08
2022-11-16T20:26:34.645Z,14.14
2022-11-16T20:29:01.355Z,13.94
2022-11-16T20:31:30.578Z,13.51
2022-11-16T20:34:02.840Z,14.06
2022-11-16T20:36:31.465Z,14.28
2022-11-16T20:38:59.396Z,14.35
2022-11-16T20:41:28.493Z,14.45
2022-11-16T20:43:57.649Z,14.49
2022-11-16T20:46:27.079Z,14.68
2022-11-16T20:48:54.339Z,14.82
2022-11-16T20:51:21.036Z,14.52
2022-11-16T20:53:49.600Z,14.69
2022-11-16T20:56:18.112Z,14.78
2022-11-16T20:58:45.890Z,14.80
2022-11-16T21:01:15.754Z,14.97
2022-11-16T21:03:42.344Z,15.09
2022-11-16T21:06:08.832Z,14.61
2022-11-16T21:08:38.342Z,15.00
2022-11-16T21:11:12.610Z,15.10
2022-11-16T21:13:39.209Z,14.76
2022-11-16T21:16:09.111Z,15.04
2022-11-16T21:18:35.563Z,15.13
2022-11-16T21:21:05.439Z,15.07
2022-11-16T21:23:35.231Z,14.74
2022-11-16T21:26:03.718Z,14.74
2022-11-16T21:28:30.159Z,15.11
2022-11-16T21:31:03.559Z,15.14
2022-11-16T21:33:30.533Z,14.88
2022-11-16T21:35:56.985Z,14.71
2022-11-16T21:38:25.111Z,14.97
2022-11-16T21:40:51.882Z,14.93
2022-11-16T21:43:18.431Z,15.03
2022-11-16T21:45:47.370Z,15.03
2022-11-16T21:48:13.976Z,15.15
2022-11-16T21:50:41.919Z,15.07
2022-11-16T21:53:08.922Z,15.15
2022-11-16T21:55:36.066Z,15.25
2022-11-16T21:58:02.854Z,15.34
2022-11-16T22:00:29.872Z,15.52
2022-11-16T22:02:56.335Z,15.23
2022-11-16T22:05:22.837Z,15.02
2022-11-16T22:07:49.285Z,15.03
2022-11-16T22:10:15.908Z,15.09
2022-11-16T22:12:42.355Z,14.79
2022-11-16T22:15:09.112Z,14.59
2022-11-16T22:17:35.610Z,14.66
2022-11-16T22:20:02.082Z,14.80
2022-11-16T22:22:28.536Z,14.72
2022-11-16T22:24:55.001Z,15.00
2022-11-16T22:27:21.517Z,14.94
2022-11-16T22:29:47.940Z,15.12
2022-11-16T22:32:14.386Z,15.10
2022-11-16T22:34:40.878Z,14.80
2022-11-16T22:37:07.363Z,14.98
2022-11-16T22:39:33.886Z,14.56
2022-11-16T22:42:00.408Z,14.88
2022-11-16T22:44:26.836Z,14.82
2022-11-16T22:46:53.298Z,14.58
2022-11-16T22:49:19.777Z,14.35
2022-11-16T22:51:46.218Z,14.53
2022-11-16T22:54:13.049Z,14.45
2022-11-16T22:56:39.488Z,14.70
2022-11-16T22:59:06.074Z,14.77
2022-11-16T23:01:32.851Z,14.52
2022-11-16T23:03:59.433Z,14.72
2022-11-16T23:06:26.130Z,14.30
2022-11-16T23:08:52.598Z,14.62
2022-11-16T23:11:24.993Z,14.58
2022-11-16T23:13:53.202Z,14.57
2022-11-16T23:16:19.659Z,14.28
2022-11-16T23:18:46.128Z,14.56
2022-11-16T23:21:12.586Z,14.33
2022-11-16T23:23:39.051Z,14.31
2022-11-16T23:26:14.493Z,14.21
2022-11-16T23:28:40.966Z,14.22
2022-11-16T23:31:07.474Z,13.88
2022-11-16T23:33:34.289Z,14.01
2022-11-16T23:36:00.959Z,14.04
2022-11-16T23:38:27.404Z,14.13
2022-11-16T23:40:53.866Z,14.12
2022-11-16T23:43:20.418Z,14.44
2022-11-16T23:45:47.162Z,14.42
2022-11-16T23:48:16.306Z,14.08
2022-11-16T23:50:44.785Z,14.66
2022-11-16T23:53:12.226Z,14.84
2022-11-16T23:55:40.084Z,14.90
2022-11-16T23:58:12.408Z,15.03
